createdAt,value
2018-07-20T00:02:05.585Z,10.70
2018-07-20T00:04:34.501Z,11.05
2018-07-20T00:07:03.342Z,10.60
2018-07-20T00:09:31.883Z,12.00
2018-07-20T00:12:00.790Z,12.20
2018-07-20T00:14:29.680Z,11.85
2018-07-20T00:16:58.918Z,11.50
2018-07-20T00:19:28.212Z,12.18
2018-07-20T00:21:56.723Z,11.25
2018-07-20T00:24:26.780Z,10.35
2018-07-20T00:26:55.356Z,11.90
2018-07-20T00:29:23.863Z,10.90
2018-07-20T00:31:52.701Z,11.85
2018-07-20T00:34:21.254Z,11.48
2018-07-20T00:36:49.851Z,11.22
2018-07-20T00:39:18.386Z,11.00
2018-07-20T00:41:47.604Z,10.85
2018-07-20T00:44:16.541Z,12.40
2018-07-20T00:46:45.053Z,10.13
2018-07-20T00:49:13.561Z,10.68
2018-07-20T00:51:42.108Z,11.50
2018-07-20T00:54:11.348Z,11.35
2018-07-20T00:56:39.877Z,11.63
2018-07-20T00:59:09.508Z,12.07
2018-07-20T01:01:38.341Z,11.35
2018-07-20T01:04:07.187Z,12.47
2018-07-20T01:06:36.065Z,12.37
2018-07-20T01:09:07.686Z,11.45
2018-07-20T01:11:36.572Z,11.70
2018-07-20T01:14:05.709Z,10.82
2018-07-20T01:16:34.589Z,12.18
2018-07-20T01:19:03.478Z,11.88
2018-07-20T01:21:32.664Z,11.50
2018-07-20T01:24:01.525Z,11.12
2018-07-20T01:26:30.993Z,11.78
2018-07-20T01:28:59.845Z,11.78
2018-07-20T01:31:28.940Z,12.18
2018-07-20T01:33:57.609Z,11.30
2018-07-20T01:36:26.138Z,11.83
2018-07-20T01:38:56.037Z,11.68
2018-07-20T01:41:24.882Z,11.08
2018-07-20T01:43:53.717Z,11.78
2018-07-20T01:46:23.150Z,12.88
2018-07-20T01:48:51.990Z,12.05
2018-07-20T01:51:20.526Z,12.47
2018-07-20T01:53:49.386Z,12.40
2018-07-20T01:56:17.918Z,11.73
2018-07-20T01:58:46.466Z,11.83
2018-07-20T02:01:15.381Z,11.45
2018-07-20T02:03:44.833Z,12.35
2018-07-20T02:06:13.669Z,11.80
2018-07-20T02:08:43.169Z,11.73
2018-07-20T02:11:11.664Z,12.18
2018-07-20T02:13:40.170Z,11.95
2018-07-20T02:16:09.026Z,13.38
2018-07-20T02:18:37.884Z,13.48
2018-07-20T02:21:06.409Z,13.35
2018-07-20T02:23:35.308Z,13.72
2018-07-20T02:26:04.737Z,12.65
2018-07-20T02:28:33.290Z,12.90
2018-07-20T02:31:02.781Z,13.25
2018-07-20T02:33:32.033Z,12.68
2018-07-20T02:36:00.540Z,13.80
2018-07-20T02:38:30.213Z,12.68
2018-07-20T02:40:59.398Z,13.40
2018-07-20T02:43:28.289Z,13.68
2018-07-20T02:45:56.792Z,13.32
2018-07-20T02:48:25.322Z,13.55
2018-07-20T02:50:54.173Z,12.60
2018-07-20T02:53:22.672Z,13.65
2018-07-20T02:55:51.542Z,14.45
2018-07-20T02:58:20.094Z,13.18
2018-07-20T03:00:49.233Z,13.18
2018-07-20T03:03:18.942Z,13.78
2018-07-20T03:05:47.841Z,13.72
2018-07-20T03:08:17.234Z,13.78
2018-07-20T03:10:46.402Z,13.15
2018-07-20T03:13:14.925Z,14.30
2018-07-20T03:15:43.433Z,14.15
2018-07-20T03:18:12.291Z,15.28
2018-07-20T03:20:41.482Z,13.45
2018-07-20T03:23:10.015Z,12.90
2018-07-20T03:25:38.557Z,14.65
2018-07-20T03:28:07.406Z,12.80
2018-07-20T03:30:35.943Z,13.55
2018-07-20T03:33:05.237Z,13.75
2018-07-20T03:35:34.438Z,12.98
2018-07-20T03:38:03.683Z,13.53
2018-07-20T03:40:34.830Z,13.95
2018-07-20T03:43:05.007Z,13.45
2018-07-20T03:45:34.197Z,13.05
2018-07-20T03:48:02.709Z,13.10
2018-07-20T03:50:32.160Z,13.15
2018-07-20T03:53:01.017Z,14.40
2018-07-20T03:55:29.526Z,12.98
2018-07-20T03:57:58.161Z,13.65
2018-07-20T04:00:26.691Z,12.65
2018-07-20T04:02:55.545Z,14.05
2018-07-20T04:05:24.067Z,14.20
2018-07-20T04:07:52.648Z,13.62
2018-07-20T04:10:21.520Z,12.40
2018-07-20T04:12:50.212Z,14.55
2018-07-20T04:15:18.721Z,14.50
2018-07-20T04:17:47.550Z,14.53
2018-07-20T04:20:16.799Z,14.07
2018-07-20T04:22:45.703Z,13.70
2018-07-20T04:25:14.242Z,13.65
2018-07-20T04:27:43.085Z,14.23
2018-07-20T04:30:13.278Z,14.23
2018-07-20T04:32:41.815Z,13.40
2018-07-20T04:35:11.463Z,13.25
2018-07-20T04:37:40.732Z,12.98
2018-07-20T04:40:09.562Z,12.37
2018-07-20T04:42:38.060Z,12.98
2018-07-20T04:45:06.936Z,13.90
2018-07-20T04:47:35.802Z,12.75
2018-07-20T04:50:05.377Z,13.13
2018-07-20T04:52:33.953Z,13.68
2018-07-20T04:55:03.021Z,12.28
2018-07-20T04:57:32.172Z,13.03
2018-07-20T05:00:01.014Z,12.15
2018-07-20T05:02:29.524Z,12.23
2018-07-20T05:04:58.030Z,12.37
2018-07-20T05:07:26.886Z,12.13
2018-07-20T05:09:57.339Z,14.50
2018-07-20T05:12:26.216Z,13.53
2018-07-20T05:14:54.747Z,12.40
2018-07-20T05:17:23.250Z,12.75
2018-07-20T05:19:51.781Z,12.93
2018-07-20T05:22:20.311Z,12.13
2018-07-20T05:24:48.851Z,13.95
2018-07-20T05:27:17.417Z,12.40
2018-07-20T05:29:46.280Z,12.85
2018-07-20T05:32:15.150Z,13.35
2018-07-20T05:34:44.743Z,14.78
2018-07-20T05:37:16.880Z,14.68
2018-07-20T05:39:46.280Z,14.23
2018-07-20T05:42:15.110Z,14.87
2018-07-20T05:44:43.992Z,14.23
2018-07-20T05:47:12.925Z,12.95
2018-07-20T05:49:42.285Z,12.70
2018-07-20T05:52:11.889Z,12.18
2018-07-20T05:54:40.509Z,13.25
2018-07-20T05:57:09.380Z,13.45
2018-07-20T05:59:38.560Z,14.28
2018-07-20T06:02:08.087Z,12.63
2018-07-20T06:04:36.951Z,15.25
2018-07-20T06:07:05.914Z,13.20
2018-07-20T06:09:34.422Z,13.13
2018-07-20T06:12:03.277Z,13.20
2018-07-20T06:14:31.784Z,13.55
2018-07-20T06:17:00.639Z,12.78
2018-07-20T06:19:29.189Z,12.70
2018-07-20T06:21:58.045Z,13.13
2018-07-20T06:24:26.584Z,14.05
2018-07-20T06:26:55.533Z,14.45
2018-07-20T06:29:24.443Z,12.98
2018-07-20T06:31:52.969Z,15.65
2018-07-20T06:34:21.518Z,14.13
2018-07-20T06:36:51.333Z,12.90
2018-07-20T06:39:20.209Z,13.18
2018-07-20T06:41:49.389Z,12.98
2018-07-20T06:44:18.854Z,12.63
2018-07-20T06:46:47.757Z,11.57
2018-07-20T06:49:16.301Z,12.40
2018-07-20T06:51:45.612Z,11.63
2018-07-20T06:54:14.467Z,11.85
2018-07-20T06:56:43.665Z,12.55
2018-07-20T06:59:13.385Z,11.68
2018-07-20T07:01:41.901Z,10.20
2018-07-20T07:04:10.903Z,9.35
2018-07-20T07:06:41.388Z,9.80
2018-07-20T07:09:10.889Z,8.80
2018-07-20T07:11:40.762Z,9.75
2018-07-20T07:14:09.626Z,9.30
2018-07-20T07:16:38.416Z,8.70
2018-07-20T07:19:06.933Z,8.45
2018-07-20T07:21:36.253Z,9.15
2018-07-20T07:24:05.677Z,8.90
2018-07-20T07:26:34.760Z,7.12
2018-07-20T07:29:04.398Z,6.83
2018-07-20T07:31:33.156Z,6.97
2018-07-20T07:34:02.105Z,6.70
2018-07-20T07:36:30.807Z,6.62
2018-07-20T07:38:59.629Z,5.70
2018-07-20T07:41:28.121Z,4.85
2018-07-20T07:43:56.614Z,5.90
2018-07-20T07:46:25.732Z,5.60
2018-07-20T07:48:55.137Z,6.00
2018-07-20T07:51:23.751Z,5.17
2018-07-20T07:53:52.301Z,6.33
2018-07-20T07:56:20.608Z,5.37
2018-07-20T07:58:49.923Z,5.42
2018-07-20T08:01:18.400Z,5.10
2018-07-20T08:03:46.937Z,4.95
2018-07-20T08:06:15.866Z,5.60
2018-07-20T08:08:44.860Z,5.00
2018-07-20T08:11:13.371Z,4.92
2018-07-20T08:13:42.541Z,4.97
2018-07-20T08:16:11.475Z,4.70
2018-07-20T08:18:40.281Z,6.40
2018-07-20T08:21:08.838Z,4.72
2018-07-20T08:23:38.427Z,5.40
2018-07-20T08:26:07.001Z,4.50
2018-07-20T08:28:35.265Z,5.10
2018-07-20T08:31:03.501Z,4.70
2018-07-20T08:33:31.705Z,5.40
2018-07-20T08:36:00.267Z,4.70
2018-07-20T08:38:29.189Z,4.93
2018-07-20T08:40:57.764Z,5.37
2018-07-20T08:43:26.380Z,5.30
2018-07-20T08:45:54.937Z,4.67
2018-07-20T08:48:23.681Z,5.57
2018-07-20T08:50:51.897Z,4.87
2018-07-20T08:53:21.030Z,4.23
2018-07-20T08:55:49.257Z,4.80
2018-07-20T08:58:17.483Z,4.87
2018-07-20T09:00:46.037Z,4.33
2018-07-20T09:03:14.257Z,4.37
2018-07-20T09:05:42.489Z,4.57
2018-07-20T09:08:10.736Z,4.53
2018-07-20T09:10:39.288Z,4.00
2018-07-20T09:13:08.665Z,4.03
2018-07-20T09:15:39.178Z,4.33
2018-07-20T09:18:08.637Z,4.03
2018-07-20T09:20:37.581Z,3.90
2018-07-20T09:23:06.410Z,5.60
2018-07-20T09:25:35.308Z,4.23
2018-07-20T09:28:03.941Z,4.40
2018-07-20T09:30:32.158Z,3.87
2018-07-20T09:33:01.152Z,4.13
2018-07-20T09:35:30.118Z,4.03
2018-07-20T09:37:58.661Z,3.87
2018-07-20T09:40:27.240Z,4.33
2018-07-20T09:42:55.905Z,4.00
2018-07-20T09:45:24.955Z,3.80
2018-07-20T09:47:53.186Z,4.50
2018-07-20T09:50:21.409Z,4.80
2018-07-20T09:52:49.970Z,4.10
2018-07-20T09:55:18.210Z,4.10
2018-07-20T09:57:46.973Z,4.27
2018-07-20T10:00:24.153Z,3.87
2018-07-20T10:02:52.778Z,3.73
2018-07-20T10:05:26.542Z,4.20
2018-07-20T10:07:54.785Z,4.00
2018-07-20T10:10:23.949Z,4.60
2018-07-20T10:12:52.707Z,3.60
2018-07-20T10:15:21.223Z,4.20
2018-07-20T10:17:49.807Z,4.23
2018-07-20T10:20:18.043Z,3.60
2018-07-20T10:22:46.293Z,3.50
2018-07-20T10:25:14.868Z,4.00
2018-07-20T10:30:11.662Z,3.70
2018-07-20T10:32:39.892Z,3.53
2018-07-20T10:35:08.488Z,3.57
2018-07-20T10:37:37.044Z,5.20
2018-07-20T10:40:05.984Z,3.67
2018-07-20T10:42:34.541Z,3.20
2018-07-20T10:45:03.130Z,4.30
2018-07-20T10:47:32.541Z,4.10
2018-07-20T10:50:00.833Z,4.73
2018-07-20T10:52:29.728Z,4.37
2018-07-20T10:54:58.276Z,3.83
2018-07-20T10:57:27.185Z,4.00
2018-07-20T10:59:56.077Z,4.00
2018-07-20T11:02:24.678Z,4.20
2018-07-20T11:04:53.282Z,3.23
2018-07-20T11:07:22.343Z,4.00
2018-07-20T11:09:50.931Z,3.90
2018-07-20T11:12:19.039Z,4.10
2018-07-20T11:14:47.605Z,4.00
2018-07-20T11:17:17.022Z,4.37
2018-07-20T11:19:47.001Z,4.70
2018-07-20T11:22:16.243Z,3.90
2018-07-20T11:24:44.915Z,3.77
2018-07-20T11:27:13.818Z,4.60
2018-07-20T11:29:43.423Z,3.90
2018-07-20T11:32:11.782Z,4.10
2018-07-20T11:34:40.724Z,3.67
2018-07-20T11:37:09.305Z,4.30
2018-07-20T11:39:37.601Z,4.13
2018-07-20T11:42:06.842Z,3.77
2018-07-20T11:44:35.785Z,3.73
2018-07-20T11:47:04.342Z,3.70
2018-07-20T11:49:33.312Z,3.97
2018-07-20T11:52:01.881Z,3.80
2018-07-20T11:54:30.129Z,4.07
2018-07-20T11:56:59.503Z,3.93
2018-07-20T11:59:28.978Z,4.07
2018-07-20T12:01:57.965Z,3.53
2018-07-20T12:04:26.653Z,4.00
2018-07-20T12:06:54.877Z,3.90
2018-07-20T12:09:23.098Z,4.13
2018-07-20T12:11:51.675Z,3.27
2018-07-20T12:14:21.482Z,3.87
2018-07-20T12:16:50.093Z,3.50
2018-07-20T12:19:18.753Z,3.70
2018-07-20T12:21:46.966Z,3.63
2018-07-20T12:24:16.162Z,3.67
2018-07-20T12:26:44.395Z,3.70
2018-07-20T12:29:12.614Z,5.10
2018-07-20T12:31:41.161Z,4.47
2018-07-20T12:34:09.702Z,3.90
2018-07-20T12:36:39.409Z,4.03
2018-07-20T12:39:10.659Z,3.83
2018-07-20T12:41:39.187Z,3.87
2018-07-20T12:44:07.488Z,4.00
2018-07-20T12:46:36.130Z,4.07
2018-07-20T12:49:04.878Z,3.90
2018-07-20T12:51:33.445Z,3.97
2018-07-20T12:54:02.247Z,3.57
2018-07-20T12:56:30.806Z,4.03
2018-07-20T12:59:01.011Z,3.80
2018-07-20T13:01:29.780Z,3.90
2018-07-20T13:03:58.637Z,3.90
2018-07-20T13:06:26.840Z,3.20
2018-07-20T13:08:55.061Z,3.70
2018-07-20T13:11:25.479Z,3.73
2018-07-20T13:13:54.953Z,4.30
2018-07-20T13:16:24.768Z,4.00
2018-07-20T13:18:53.010Z,4.37
2018-07-20T13:21:21.229Z,3.43
2018-07-20T13:23:50.152Z,3.60
2018-07-20T13:26:18.860Z,3.80
2018-07-20T13:28:47.788Z,3.67
2018-07-20T13:31:16.360Z,3.13
2018-07-20T13:33:44.632Z,3.47
2018-07-20T13:36:12.875Z,3.73
2018-07-20T13:38:41.095Z,3.70
2018-07-20T13:41:09.662Z,3.53
2018-07-20T13:43:38.654Z,3.40
2018-07-20T13:46:08.178Z,3.30
2018-07-20T13:48:37.125Z,3.87
2018-07-20T13:51:06.665Z,4.23
2018-07-20T13:53:35.805Z,3.73
2018-07-20T13:56:04.501Z,4.17
2018-07-20T13:58:33.563Z,3.67
2018-07-20T14:01:02.140Z,3.90
2018-07-20T14:03:31.964Z,3.80
2018-07-20T14:06:00.418Z,4.43
2018-07-20T14:08:28.718Z,3.80
2018-07-20T14:10:58.845Z,4.20
2018-07-20T14:13:27.431Z,3.70
2018-07-20T14:15:56.361Z,3.50
2018-07-20T14:18:25.781Z,3.83
2018-07-20T14:20:55.169Z,3.60
2018-07-20T14:23:27.665Z,3.60
2018-07-20T14:25:56.029Z,4.33
2018-07-20T14:28:25.772Z,3.53
2018-07-20T14:30:55.189Z,3.87
2018-07-20T14:33:26.869Z,4.30
2018-07-20T14:35:58.257Z,4.00
2018-07-20T14:38:29.018Z,3.20
2018-07-20T14:40:57.652Z,3.30
2018-07-20T14:43:28.654Z,4.30
2018-07-20T14:45:58.577Z,3.33
2018-07-20T14:48:29.688Z,3.50
2018-07-20T14:50:58.968Z,3.20
2018-07-20T14:53:31.240Z,3.97
2018-07-20T14:55:59.867Z,3.27
2018-07-20T14:58:31.490Z,4.20
2018-07-20T15:01:00.728Z,3.53
2018-07-20T15:03:29.627Z,3.90
2018-07-20T15:05:58.433Z,3.60
2018-07-20T15:08:26.999Z,3.23
2018-07-20T15:10:55.578Z,3.53
2018-07-20T15:14:48.363Z,3.53
2018-07-20T15:17:16.614Z,3.60
2018-07-20T15:19:45.785Z,3.40
2018-07-20T15:22:14.349Z,3.17
2018-07-20T15:24:42.620Z,3.10
2018-07-20T15:27:11.184Z,3.50
2018-07-20T15:29:39.571Z,3.87
2018-07-20T15:32:07.961Z,3.73
2018-07-20T15:34:37.254Z,3.87
2018-07-20T15:37:07.323Z,3.90
2018-07-20T15:39:36.606Z,3.80
2018-07-20T15:42:04.839Z,3.30
2018-07-20T15:44:33.098Z,3.60
2018-07-20T15:47:02.163Z,4.30
2018-07-20T15:49:30.405Z,4.13
2018-07-20T15:54:27.470Z,4.17
2018-07-20T15:56:55.875Z,3.60
2018-07-20T15:59:24.130Z,4.10
2018-07-20T16:01:52.407Z,4.67
2018-07-20T16:04:21.473Z,4.10
2018-07-20T16:06:50.769Z,4.00
2018-07-20T16:09:19.337Z,3.90
2018-07-20T16:11:47.901Z,4.70
2018-07-20T16:14:18.433Z,3.43
2018-07-20T16:16:47.065Z,4.50
2018-07-20T16:19:16.241Z,4.10
2018-07-20T16:21:46.517Z,3.80
2018-07-20T16:24:15.105Z,3.83
2018-07-20T16:26:43.320Z,3.80
2018-07-20T16:29:12.232Z,3.70
2018-07-20T16:31:40.975Z,4.00
2018-07-20T16:34:09.205Z,4.53
2018-07-20T16:36:38.100Z,4.20
2018-07-20T16:39:08.847Z,4.40
2018-07-20T16:41:37.257Z,3.77
2018-07-20T16:44:06.931Z,4.37
2018-07-20T16:46:36.093Z,4.30
2018-07-20T16:49:04.648Z,4.10
2018-07-20T16:51:33.333Z,4.30
2018-07-20T16:54:02.307Z,3.90
2018-07-20T16:56:30.563Z,3.60
2018-07-20T16:58:58.798Z,4.50
2018-07-20T17:01:27.309Z,4.50
2018-07-20T17:03:56.789Z,4.13
2018-07-20T17:06:25.399Z,4.40
2018-07-20T17:08:56.457Z,4.17
2018-07-20T17:11:26.234Z,4.60
2018-07-20T17:13:58.983Z,5.10
2018-07-20T17:16:28.201Z,3.90
2018-07-20T17:21:44.639Z,4.87
2018-07-20T17:24:13.929Z,4.30
2018-07-20T17:26:42.186Z,4.80
2018-07-20T17:29:11.998Z,5.00
2018-07-20T17:31:40.412Z,4.17
2018-07-20T17:34:09.393Z,4.30
2018-07-20T17:36:38.020Z,4.70
2018-07-20T17:39:12.198Z,4.87
2018-07-20T17:41:44.358Z,4.70
2018-07-20T17:47:02.123Z,4.30
2018-07-20T17:49:33.215Z,5.00
2018-07-20T17:52:13.460Z,5.60
2018-07-20T17:54:41.709Z,5.37
2018-07-20T17:57:12.501Z,4.93
2018-07-20T17:59:46.733Z,4.93
2018-07-20T18:02:15.355Z,5.07
2018-07-20T18:05:16.754Z,4.97
2018-07-20T18:07:52.683Z,5.03
2018-07-20T18:10:28.220Z,5.40
2018-07-20T18:13:15.909Z,5.13
2018-07-20T18:15:45.151Z,5.40
2018-07-20T18:18:14.838Z,4.83
2018-07-20T18:20:43.974Z,5.00
2018-07-20T18:23:14.086Z,5.10
2018-07-20T18:25:42.633Z,5.03
2018-07-20T18:28:10.947Z,4.83
2018-07-20T18:30:39.937Z,7.00
2018-07-20T18:33:25.781Z,5.73
2018-07-20T18:38:46.121Z,5.40
2018-07-20T18:41:30.854Z,5.90
2018-07-20T18:44:21.008Z,5.83
2018-07-20T18:46:51.418Z,5.57
2018-07-20T18:49:22.477Z,5.27
2018-07-20T18:51:51.393Z,5.83
2018-07-20T18:54:20.773Z,5.60
2018-07-20T18:56:49.350Z,5.27
2018-07-20T18:59:17.597Z,6.33
2018-07-20T19:01:45.978Z,5.33
2018-07-20T19:04:14.280Z,6.10
2018-07-20T19:06:42.874Z,5.50
2018-07-20T19:09:12.120Z,6.20
2018-07-20T19:11:40.929Z,5.87
2018-07-20T19:14:09.592Z,6.47
2018-07-20T19:16:38.349Z,6.50
2018-07-20T19:19:07.042Z,6.37
2018-07-20T19:23:00.393Z,6.63
2018-07-20T19:25:28.622Z,7.03
2018-07-20T19:27:57.983Z,6.03
2018-07-20T19:30:27.809Z,7.27
2018-07-20T19:32:57.409Z,6.40
2018-07-20T19:35:27.047Z,6.10
2018-07-20T19:37:55.322Z,6.97
2018-07-20T19:40:23.655Z,6.47
2018-07-20T19:42:52.199Z,7.17
2018-07-20T19:45:20.623Z,6.73
2018-07-20T19:47:49.673Z,7.57
2018-07-20T19:50:18.963Z,6.17
2018-07-20T19:52:50.326Z,6.50
2018-07-20T19:55:19.335Z,7.10
2018-07-20T19:57:49.524Z,6.10
2018-07-20T20:00:18.513Z,7.27
2018-07-20T20:02:48.701Z,7.43
2018-07-20T20:05:16.937Z,6.17
2018-07-20T20:07:45.831Z,7.07
2018-07-20T20:10:16.943Z,6.57
2018-07-20T20:12:48.005Z,6.60
2018-07-20T20:15:17.614Z,8.00
2018-07-20T20:17:46.941Z,7.70
2018-07-20T20:20:16.146Z,8.30
2018-07-20T20:22:45.131Z,7.30
2018-07-20T20:25:13.540Z,8.73
2018-07-20T20:27:42.680Z,8.07
2018-07-20T20:30:11.265Z,7.17
2018-07-20T20:32:40.072Z,7.70
2018-07-20T20:35:08.727Z,6.73
2018-07-20T20:37:38.014Z,8.33
2018-07-20T20:40:07.651Z,8.20
2018-07-20T20:42:40.184Z,7.47
2018-07-20T20:45:09.937Z,7.50
2018-07-20T20:47:39.285Z,7.47
2018-07-20T20:50:08.128Z,7.13
2018-07-20T20:52:37.013Z,7.70
2018-07-20T20:55:05.699Z,7.57
2018-07-20T20:57:34.825Z,7.40
2018-07-20T21:00:04.554Z,7.70
2018-07-20T21:02:33.137Z,8.10
2018-07-20T21:05:03.752Z,7.77
2018-07-20T21:07:33.096Z,7.90
2018-07-20T21:10:02.557Z,7.43
2018-07-20T21:12:31.166Z,7.67
2018-07-20T21:15:14.339Z,7.60
2018-07-20T21:17:45.433Z,8.20
2018-07-20T21:20:14.366Z,7.90
2018-07-20T21:22:42.918Z,9.23
2018-07-20T21:25:11.849Z,8.40
2018-07-20T21:27:40.122Z,7.37
2018-07-20T21:30:08.385Z,8.20
2018-07-20T21:35:12.718Z,8.33
2018-07-20T21:37:42.593Z,8.77
2018-07-20T21:40:12.434Z,8.47
2018-07-20T21:42:40.697Z,8.30
2018-07-20T21:45:08.985Z,8.07
2018-07-20T21:47:37.982Z,7.47
2018-07-20T21:50:07.216Z,8.17
2018-07-20T21:52:35.466Z,8.03
2018-07-20T21:55:04.317Z,8.30
2018-07-20T21:57:32.937Z,8.20
2018-07-20T22:00:05.561Z,8.90
2018-07-20T22:02:34.318Z,8.60
2018-07-20T22:05:02.884Z,8.80
2018-07-20T22:07:31.478Z,8.87
2018-07-20T22:10:00.060Z,10.00
2018-07-20T22:12:29.517Z,8.60
2018-07-20T22:14:58.361Z,8.63
2018-07-20T22:17:27.274Z,10.43
2018-07-20T22:19:55.618Z,8.90
2018-07-20T22:22:24.211Z,8.33
2018-07-20T22:24:53.128Z,9.17
2018-07-20T22:27:21.765Z,8.40
2018-07-20T22:29:50.312Z,9.28
2018-07-20T22:32:18.684Z,8.73
2018-07-20T22:34:47.225Z,9.05
2018-07-20T22:37:16.425Z,8.85
2018-07-20T22:39:45.009Z,9.60
2018-07-20T22:42:13.837Z,9.20
2018-07-20T22:44:43.159Z,10.10
2018-07-20T22:47:11.481Z,10.63
2018-07-20T22:49:40.519Z,11.25
2018-07-20T22:52:10.161Z,9.37
2018-07-20T22:54:38.703Z,10.93
2018-07-20T22:57:07.231Z,10.60
2018-07-20T22:59:36.864Z,10.08
2018-07-20T23:02:06.639Z,11.70
2018-07-20T23:04:35.101Z,11.00
2018-07-20T23:07:03.853Z,11.40
2018-07-20T23:09:33.275Z,11.38
2018-07-20T23:12:01.866Z,11.47
2018-07-20T23:14:31.152Z,10.17
2018-07-20T23:16:59.773Z,10.47
2018-07-20T23:19:28.722Z,11.33
2018-07-20T23:21:57.292Z,9.05
2018-07-20T23:24:25.849Z,10.38
2018-07-20T23:26:54.766Z,11.30
2018-07-20T23:29:23.693Z,10.87
2018-07-20T23:31:52.457Z,11.13
2018-07-20T23:34:20.975Z,9.93
2018-07-20T23:36:49.790Z,11.05
2018-07-20T23:39:18.358Z,9.83
2018-07-20T23:41:46.861Z,10.90
2018-07-20T23:44:15.379Z,10.48
2018-07-20T23:46:44.218Z,10.18
2018-07-20T23:49:13.047Z,11.03
2018-07-20T23:51:42.233Z,9.10
2018-07-20T23:54:11.094Z,10.00
2018-07-20T23:56:39.929Z,10.95
2018-07-20T23:59:08.774Z,11.22
